Miami, Florida
Traffic Map
Current Weather Conditions
Miami, Florida
Broken Clouds
Broken Clouds
30°
Feels Like: 34°
Wind Chill: 30° Ceiling: 25000
Heat Index: 34° Visibility: 10mi
Dew Point: 23° Wind: 9mph
Humidity: 67% Direction: 140° (SE)
Pressure: 30in Gusts: 0mph
Raw Report DataKMIA 241653Z 14008KT 10SM SCT024 BKN250 30/23 A3000 RMK AO2 SLP160 T03000233
Traffic Incident Summary
Active as of:
Severity:
Category:
InformationThere was an issue retrieving the traffic information for this location. Please try a different location or try again shortly.
Advertisements
Track Severe Weather on mobile